sensor_id;sensor_type;location;lat;lon;timestamp;temperature;humidity
2621;DHT22;1320;48.128;11.592;2023-08-17T00:02:18;23.40;99.90
2621;DHT22;1320;48.128;11.592;2023-08-17T00:04:43;23.40;99.90
2621;DHT22;1320;48.128;11.592;2023-08-17T00:07:09;23.40;99.90
2621;DHT22;1320;48.128;11.592;2023-08-17T00:09:34;23.40;99.90
2621;DHT22;1320;48.128;11.592;2023-08-17T00:12:01;23.30;99.90
2621;DHT22;1320;48.128;11.592;2023-08-17T00:14:27;23.30;99.90
2621;DHT22;1320;48.128;11.592;2023-08-17T00:16:52;23.30;99.90
2621;DHT22;1320;48.128;11.592;2023-08-17T00:19:18;23.30;99.90
2621;DHT22;1320;48.128;11.592;2023-08-17T00:21:46;23.20;99.90
2621;DHT22;1320;48.128;11.592;2023-08-17T00:24:12;23.20;99.90
2621;DHT22;1320;48.128;11.592;2023-08-17T00:26:38;23.20;99.90
2621;DHT22;1320;48.128;11.592;2023-08-17T00:29:04;23.10;99.90
2621;DHT22;1320;48.128;11.592;2023-08-17T00:31:29;23.10;99.90
2621;DHT22;1320;48.128;11.592;2023-08-17T00:33:55;23.00;99.90
2621;DHT22;1320;48.128;11.592;2023-08-17T00:36:21;22.90;99.90
2621;DHT22;1320;48.128;11.592;2023-08-17T00:38:46;22.90;99.90
2621;DHT22;1320;48.128;11.592;2023-08-17T00:41:12;22.90;99.90
2621;DHT22;1320;48.128;11.592;2023-08-17T00:43:38;22.80;99.90
2621;DHT22;1320;48.128;11.592;2023-08-17T00:46:03;22.80;99.90
2621;DHT22;1320;48.128;11.592;2023-08-17T00:48:29;22.80;99.90
2621;DHT22;1320;48.128;11.592;2023-08-17T00:50:58;22.80;99.90
2621;DHT22;1320;48.128;11.592;2023-08-17T00:53:26;22.80;99.90
2621;DHT22;1320;48.128;11.592;2023-08-17T00:55:52;22.70;99.90
2621;DHT22;1320;48.128;11.592;2023-08-17T00:58:19;22.70;99.90
2621;DHT22;1320;48.128;11.592;2023-08-17T01:00:45;22.70;99.90
2621;DHT22;1320;48.128;11.592;2023-08-17T01:03:11;22.70;99.90
2621;DHT22;1320;48.128;11.592;2023-08-17T01:05:37;22.70;99.90
2621;DHT22;1320;48.128;11.592;2023-08-17T01:08:03;22.60;99.90
2621;DHT22;1320;48.128;11.592;2023-08-17T01:10:39;22.60;99.90
2621;DHT22;1320;48.128;11.592;2023-08-17T01:13:15;22.60;99.90
2621;DHT22;1320;48.128;11.592;2023-08-17T01:15:51;22.60;99.90
2621;DHT22;1320;48.128;11.592;2023-08-17T01:18:29;22.50;99.90
2621;DHT22;1320;48.128;11.592;2023-08-17T01:20:57;22.40;99.90
2621;DHT22;1320;48.128;11.592;2023-08-17T01:23:23;22.40;99.90
2621;DHT22;1320;48.128;11.592;2023-08-17T01:25:49;22.30;99.90
2621;DHT22;1320;48.128;11.592;2023-08-17T01:28:15;22.20;99.90
2621;DHT22;1320;48.128;11.592;2023-08-17T01:30:53;22.20;99.90
2621;DHT22;1320;48.128;11.592;2023-08-17T01:33:27;22.10;99.90
2621;DHT22;1320;48.128;11.592;2023-08-17T01:36:01;22.10;99.90
2621;DHT22;1320;48.128;11.592;2023-08-17T01:38:29;22.10;99.90
2621;DHT22;1320;48.128;11.592;2023-08-17T01:40:57;22.10;99.90
2621;DHT22;1320;48.128;11.592;2023-08-17T01:43:23;22.00;99.90
2621;DHT22;1320;48.128;11.592;2023-08-17T01:45:49;22.10;99.90
2621;DHT22;1320;48.128;11.592;2023-08-17T01:48:14;22.00;99.90
2621;DHT22;1320;48.128;11.592;2023-08-17T01:50:40;22.00;99.90
2621;DHT22;1320;48.128;11.592;2023-08-17T01:53:05;22.00;99.90
2621;DHT22;1320;48.128;11.592;2023-08-17T01:55:31;21.90;99.90
2621;DHT22;1320;48.128;11.592;2023-08-17T01:57:57;21.90;99.90
2621;DHT22;1320;48.128;11.592;2023-08-17T02:00:22;21.90;99.90
2621;DHT22;1320;48.128;11.592;2023-08-17T02:02:48;21.90;99.90
2621;DHT22;1320;48.128;11.592;2023-08-17T02:05:13;21.90;99.90
2621;DHT22;1320;48.128;11.592;2023-08-17T02:07:39;21.90;99.90
2621;DHT22;1320;48.128;11.592;2023-08-17T02:10:05;21.90;99.90
2621;DHT22;1320;48.128;11.592;2023-08-17T02:12:31;21.80;99.90
2621;DHT22;1320;48.128;11.592;2023-08-17T02:14:56;21.80;99.90
2621;DHT22;1320;48.128;11.592;2023-08-17T02:17:22;21.70;99.90
2621;DHT22;1320;48.128;11.592;2023-08-17T02:19:48;21.70;99.90
2621;DHT22;1320;48.128;11.592;2023-08-17T02:22:14;21.70;99.90
2621;DHT22;1320;48.128;11.592;2023-08-17T02:24:40;21.70;99.90
2621;DHT22;1320;48.128;11.592;2023-08-17T02:27:07;21.70;99.90
2621;DHT22;1320;48.128;11.592;2023-08-17T02:29:33;21.70;99.90
2621;DHT22;1320;48.128;11.592;2023-08-17T02:31:58;21.60;99.90
2621;DHT22;1320;48.128;11.592;2023-08-17T02:34:24;21.60;99.90
2621;DHT22;1320;48.128;11.592;2023-08-17T02:36:50;21.60;99.90
2621;DHT22;1320;48.128;11.592;2023-08-17T02:39:15;21.60;99.90
2621;DHT22;1320;48.128;11.592;2023-08-17T02:41:41;21.60;99.90
2621;DHT22;1320;48.128;11.592;2023-08-17T02:44:07;21.50;99.90
2621;DHT22;1320;48.128;11.592;2023-08-17T02:46:32;21.50;99.90
2621;DHT22;1320;48.128;11.592;2023-08-17T02:48:58;21.40;99.90
2621;DHT22;1320;48.128;11.592;2023-08-17T02:53:50;21.20;99.90
2621;DHT22;1320;48.128;11.592;2023-08-17T02:56:15;21.20;99.90
2621;DHT22;1320;48.128;11.592;2023-08-17T02:58:41;21.10;99.90
2621;DHT22;1320;48.128;11.592;2023-08-17T03:01:10;21.00;99.90
2621;DHT22;1320;48.128;11.592;2023-08-17T03:03:36;20.90;99.90
2621;DHT22;1320;48.128;11.592;2023-08-17T03:06:02;20.90;99.90
2621;DHT22;1320;48.128;11.592;2023-08-17T03:08:28;20.80;99.90
2621;DHT22;1320;48.128;11.592;2023-08-17T03:10:54;20.70;99.90
2621;DHT22;1320;48.128;11.592;2023-08-17T03:13:20;20.70;99.90
2621;DHT22;1320;48.128;11.592;2023-08-17T03:15:45;20.70;99.90
2621;DHT22;1320;48.128;11.592;2023-08-17T03:18:11;20.70;99.90
2621;DHT22;1320;48.128;11.592;2023-08-17T03:20:37;20.70;99.90
2621;DHT22;1320;48.128;11.592;2023-08-17T03:23:02;20.70;99.90
2621;DHT22;1320;48.128;11.592;2023-08-17T03:25:31;20.70;99.90
2621;DHT22;1320;48.128;11.592;2023-08-17T03:27:57;20.70;99.90
2621;DHT22;1320;48.128;11.592;2023-08-17T03:30:22;20.70;99.90
2621;DHT22;1320;48.128;11.592;2023-08-17T03:32:48;20.70;99.90
2621;DHT22;1320;48.128;11.592;2023-08-17T03:35:14;20.70;99.90
2621;DHT22;1320;48.128;11.592;2023-08-17T03:37:39;20.70;99.90
2621;DHT22;1320;48.128;11.592;2023-08-17T03:40:05;20.70;99.90
2621;DHT22;1320;48.128;11.592;2023-08-17T03:42:31;20.80;99.90
2621;DHT22;1320;48.128;11.592;2023-08-17T03:44:57;20.80;99.90
2621;DHT22;1320;48.128;11.592;2023-08-17T03:47:22;20.80;99.90
2621;DHT22;1320;48.128;11.592;2023-08-17T03:49:48;20.80;99.90
2621;DHT22;1320;48.128;11.592;2023-08-17T03:52:14;20.80;99.90
2621;DHT22;1320;48.128;11.592;2023-08-17T03:54:39;20.80;99.90
2621;DHT22;1320;48.128;11.592;2023-08-17T03:57:05;20.80;99.90
2621;DHT22;1320;48.128;11.592;2023-08-17T03:59:30;20.80;99.90
2621;DHT22;1320;48.128;11.592;2023-08-17T04:01:56;20.80;99.90
2621;DHT22;1320;48.128;11.592;2023-08-17T04:04:21;20.80;99.90
2621;DHT22;1320;48.128;11.592;2023-08-17T04:06:47;20.80;99.90
2621;DHT22;1320;48.128;11.592;2023-08-17T04:09:13;20.80;99.90
2621;DHT22;1320;48.128;11.592;2023-08-17T04:11:38;20.80;99.90
2621;DHT22;1320;48.128;11.592;2023-08-17T04:14:04;20.80;99.90
2621;DHT22;1320;48.128;11.592;2023-08-17T04:16:30;20.80;99.90
2621;DHT22;1320;48.128;11.592;2023-08-17T04:18:56;20.80;99.90
2621;DHT22;1320;48.128;11.592;2023-08-17T04:21:21;20.70;99.90
2621;DHT22;1320;48.128;11.592;2023-08-17T04:23:47;20.70;99.90
2621;DHT22;1320;48.128;11.592;2023-08-17T04:26:12;20.60;99.90
2621;DHT22;1320;48.128;11.592;2023-08-17T04:28:38;20.60;99.90
2621;DHT22;1320;48.128;11.592;2023-08-17T04:31:04;20.60;99.90
2621;DHT22;1320;48.128;11.592;2023-08-17T04:33:30;20.60;99.90
2621;DHT22;1320;48.128;11.592;2023-08-17T04:35:55;20.60;99.90
2621;DHT22;1320;48.128;11.592;2023-08-17T04:38:21;20.70;99.90
2621;DHT22;1320;48.128;11.592;2023-08-17T04:40:47;20.70;99.90
2621;DHT22;1320;48.128;11.592;2023-08-17T04:43:13;20.60;99.90
2621;DHT22;1320;48.128;11.592;2023-08-17T04:45:39;20.60;99.90
2621;DHT22;1320;48.128;11.592;2023-08-17T04:48:05;20.70;99.90
2621;DHT22;1320;48.128;11.592;2023-08-17T04:50:31;20.60;99.90
2621;DHT22;1320;48.128;11.592;2023-08-17T04:52:57;20.70;99.90
2621;DHT22;1320;48.128;11.592;2023-08-17T04:55:23;20.70;99.90
2621;DHT22;1320;48.128;11.592;2023-08-17T04:57:49;20.70;99.90
2621;DHT22;1320;48.128;11.592;2023-08-17T05:00:15;20.80;99.90
2621;DHT22;1320;48.128;11.592;2023-08-17T05:02:41;20.80;99.90
2621;DHT22;1320;48.128;11.592;2023-08-17T05:05:07;20.80;99.90
2621;DHT22;1320;48.128;11.592;2023-08-17T05:07:34;20.90;99.90
2621;DHT22;1320;48.128;11.592;2023-08-17T05:10:00;20.90;99.90
2621;DHT22;1320;48.128;11.592;2023-08-17T05:12:27;21.00;99.90
2621;DHT22;1320;48.128;11.592;2023-08-17T05:14:52;21.00;99.90
2621;DHT22;1320;48.128;11.592;2023-08-17T05:17:18;21.10;99.90
2621;DHT22;1320;48.128;11.592;2023-08-17T05:19:43;21.10;99.90
2621;DHT22;1320;48.128;11.592;2023-08-17T05:22:11;21.10;99.90
2621;DHT22;1320;48.128;11.592;2023-08-17T05:24:38;21.20;99.90
2621;DHT22;1320;48.128;11.592;2023-08-17T05:27:04;21.20;99.90
2621;DHT22;1320;48.128;11.592;2023-08-17T05:29:30;21.30;99.90
2621;DHT22;1320;48.128;11.592;2023-08-17T05:31:57;21.30;99.90
2621;DHT22;1320;48.128;11.592;2023-08-17T05:34:23;21.40;99.90
2621;DHT22;1320;48.128;11.592;2023-08-17T05:36:49;21.40;99.90
2621;DHT22;1320;48.128;11.592;2023-08-17T05:39:14;21.50;99.90
2621;DHT22;1320;48.128;11.592;2023-08-17T05:41:40;21.50;99.90
2621;DHT22;1320;48.128;11.592;2023-08-17T05:44:06;21.50;99.90
2621;DHT22;1320;48.128;11.592;2023-08-17T05:46:35;21.60;99.90
2621;DHT22;1320;48.128;11.592;2023-08-17T05:49:02;21.70;99.90
2621;DHT22;1320;48.128;11.592;2023-08-17T05:51:28;21.80;99.90
2621;DHT22;1320;48.128;11.592;2023-08-17T05:53:54;21.80;99.90
2621;DHT22;1320;48.128;11.592;2023-08-17T05:56:19;21.90;99.90
2621;DHT22;1320;48.128;11.592;2023-08-17T05:58:45;22.00;99.90
2621;DHT22;1320;48.128;11.592;2023-08-17T06:01:11;22.10;99.90
2621;DHT22;1320;48.128;11.592;2023-08-17T06:03:37;22.20;99.90
2621;DHT22;1320;48.128;11.592;2023-08-17T06:06:03;22.30;99.90
2621;DHT22;1320;48.128;11.592;2023-08-17T06:08:30;22.40;99.90
2621;DHT22;1320;48.128;11.592;2023-08-17T06:10:56;22.50;99.90
2621;DHT22;1320;48.128;11.592;2023-08-17T06:13:22;22.60;99.90
2621;DHT22;1320;48.128;11.592;2023-08-17T06:15:47;22.70;99.90
2621;DHT22;1320;48.128;11.592;2023-08-17T06:18:13;22.80;99.90
2621;DHT22;1320;48.128;11.592;2023-08-17T06:20:39;22.90;99.90
2621;DHT22;1320;48.128;11.592;2023-08-17T06:23:04;23.00;99.90
2621;DHT22;1320;48.128;11.592;2023-08-17T06:25:30;23.00;99.90
2621;DHT22;1320;48.128;11.592;2023-08-17T06:27:56;23.10;99.90
2621;DHT22;1320;48.128;11.592;2023-08-17T06:30:22;23.20;99.90
2621;DHT22;1320;48.128;11.592;2023-08-17T06:32:47;23.30;99.90
2621;DHT22;1320;48.128;11.592;2023-08-17T06:35:13;23.40;99.90
2621;DHT22;1320;48.128;11.592;2023-08-17T06:37:39;23.50;99.90
2621;DHT22;1320;48.128;11.592;2023-08-17T06:40:05;23.60;99.90
2621;DHT22;1320;48.128;11.592;2023-08-17T06:42:31;23.70;99.90
2621;DHT22;1320;48.128;11.592;2023-08-17T06:44:57;23.80;99.90
2621;DHT22;1320;48.128;11.592;2023-08-17T06:47:23;23.90;99.90
2621;DHT22;1320;48.128;11.592;2023-08-17T06:49:48;24.00;99.90
2621;DHT22;1320;48.128;11.592;2023-08-17T06:52:14;24.10;99.90
2621;DHT22;1320;48.128;11.592;2023-08-17T06:54:40;24.20;99.90
2621;DHT22;1320;48.128;11.592;2023-08-17T06:57:05;24.30;99.90
2621;DHT22;1320;48.128;11.592;2023-08-17T06:59:31;24.30;99.90
2621;DHT22;1320;48.128;11.592;2023-08-17T07:01:58;24.40;99.90
2621;DHT22;1320;48.128;11.592;2023-08-17T07:04:25;24.40;99.90
2621;DHT22;1320;48.128;11.592;2023-08-17T07:06:50;24.40;99.90
2621;DHT22;1320;48.128;11.592;2023-08-17T07:09:16;24.40;99.90
2621;DHT22;1320;48.128;11.592;2023-08-17T07:11:42;24.40;99.90
2621;DHT22;1320;48.128;11.592;2023-08-17T07:14:07;24.50;99.90
2621;DHT22;1320;48.128;11.592;2023-08-17T07:16:33;24.60;99.90
2621;DHT22;1320;48.128;11.592;2023-08-17T07:18:59;24.70;99.90
2621;DHT22;1320;48.128;11.592;2023-08-17T07:21:25;24.90;99.90
2621;DHT22;1320;48.128;11.592;2023-08-17T07:23:51;25.00;99.90
2621;DHT22;1320;48.128;11.592;2023-08-17T07:26:17;25.20;99.90
2621;DHT22;1320;48.128;11.592;2023-08-17T07:28:44;25.30;99.90
2621;DHT22;1320;48.128;11.592;2023-08-17T07:31:10;25.50;99.90
2621;DHT22;1320;48.128;11.592;2023-08-17T07:33:36;25.60;99.90
2621;DHT22;1320;48.128;11.592;2023-08-17T07:36:02;25.70;99.90
2621;DHT22;1320;48.128;11.592;2023-08-17T07:38:28;25.90;99.90
2621;DHT22;1320;48.128;11.592;2023-08-17T07:40:54;26.00;99.90
2621;DHT22;1320;48.128;11.592;2023-08-17T07:43:20;26.10;99.90
2621;DHT22;1320;48.128;11.592;2023-08-17T07:45:46;26.20;99.90
2621;DHT22;1320;48.128;11.592;2023-08-17T07:48:11;26.30;99.90
2621;DHT22;1320;48.128;11.592;2023-08-17T07:50:37;26.40;99.90
2621;DHT22;1320;48.128;11.592;2023-08-17T07:53:03;26.50;99.90
2621;DHT22;1320;48.128;11.592;2023-08-17T07:55:28;26.60;99.90
2621;DHT22;1320;48.128;11.592;2023-08-17T07:57:54;26.70;99.90
2621;DHT22;1320;48.128;11.592;2023-08-17T08:00:20;26.80;99.90
2621;DHT22;1320;48.128;11.592;2023-08-17T08:02:46;27.10;99.90
2621;DHT22;1320;48.128;11.592;2023-08-17T08:05:12;27.40;99.90
2621;DHT22;1320;48.128;11.592;2023-08-17T08:10:06;28.60;99.90
2621;DHT22;1320;48.128;11.592;2023-08-17T08:12:32;29.30;99.90
2621;DHT22;1320;48.128;11.592;2023-08-17T08:14:57;29.90;99.90
2621;DHT22;1320;48.128;11.592;2023-08-17T08:19:49;31.50;99.90
2621;DHT22;1320;48.128;11.592;2023-08-17T08:22:16;32.30;99.90
2621;DHT22;1320;48.128;11.592;2023-08-17T08:24:41;32.80;99.90
2621;DHT22;1320;48.128;11.592;2023-08-17T08:27:07;33.30;99.00
2621;DHT22;1320;48.128;11.592;2023-08-17T08:29:33;33.70;97.70
2621;DHT22;1320;48.128;11.592;2023-08-17T08:31:59;34.00;96.80
2621;DHT22;1320;48.128;11.592;2023-08-17T08:34:28;34.30;96.60
2621;DHT22;1320;48.128;11.592;2023-08-17T08:36:53;34.50;95.90
2621;DHT22;1320;48.128;11.592;2023-08-17T08:39:19;34.80;95.30
2621;DHT22;1320;48.128;11.592;2023-08-17T08:41:45;35.10;94.40
2621;DHT22;1320;48.128;11.592;2023-08-17T08:44:10;35.50;93.40
2621;DHT22;1320;48.128;11.592;2023-08-17T08:46:36;35.70;93.30
2621;DHT22;1320;48.128;11.592;2023-08-17T08:49:06;35.90;93.00
2621;DHT22;1320;48.128;11.592;2023-08-17T08:51:39;36.00;92.60
2621;DHT22;1320;48.128;11.592;2023-08-17T08:54:08;36.10;92.00
2621;DHT22;1320;48.128;11.592;2023-08-17T08:56:38;36.30;91.50
2621;DHT22;1320;48.128;11.592;2023-08-17T08:59:08;36.60;91.20
2621;DHT22;1320;48.128;11.592;2023-08-17T09:01:34;36.90;90.90
2621;DHT22;1320;48.128;11.592;2023-08-17T09:04:00;36.90;91.00
2621;DHT22;1320;48.128;11.592;2023-08-17T09:06:32;37.10;90.50
2621;DHT22;1320;48.128;11.592;2023-08-17T09:08:58;37.10;90.30
2621;DHT22;1320;48.128;11.592;2023-08-17T09:11:25;37.00;89.90
2621;DHT22;1320;48.128;11.592;2023-08-17T09:13:52;36.70;90.20
2621;DHT22;1320;48.128;11.592;2023-08-17T09:16:17;36.30;90.70
2621;DHT22;1320;48.128;11.592;2023-08-17T09:18:43;36.20;90.70
2621;DHT22;1320;48.128;11.592;2023-08-17T09:21:20;36.20;90.60
2621;DHT22;1320;48.128;11.592;2023-08-17T09:23:54;36.40;90.20
2621;DHT22;1320;48.128;11.592;2023-08-17T09:26:21;36.40;89.50
2621;DHT22;1320;48.128;11.592;2023-08-17T09:28:49;36.60;88.50
2621;DHT22;1320;48.128;11.592;2023-08-17T09:31:15;36.60;87.50
2621;DHT22;1320;48.128;11.592;2023-08-17T09:33:41;36.60;88.50
2621;DHT22;1320;48.128;11.592;2023-08-17T09:36:06;36.30;89.00
2621;DHT22;1320;48.128;11.592;2023-08-17T09:38:32;36.40;88.20
2621;DHT22;1320;48.128;11.592;2023-08-17T09:40:58;36.60;89.00
2621;DHT22;1320;48.128;11.592;2023-08-17T09:43:24;36.80;87.80
2621;DHT22;1320;48.128;11.592;2023-08-17T09:45:54;36.80;88.60
2621;DHT22;1320;48.128;11.592;2023-08-17T09:48:20;37.00;85.50
2621;DHT22;1320;48.128;11.592;2023-08-17T09:50:47;37.20;85.50
2621;DHT22;1320;48.128;11.592;2023-08-17T09:53:18;37.00;86.00
2621;DHT22;1320;48.128;11.592;2023-08-17T09:55:45;36.60;84.80
2621;DHT22;1320;48.128;11.592;2023-08-17T09:58:12;36.30;85.50
2621;DHT22;1320;48.128;11.592;2023-08-17T10:00:50;36.10;85.70
2621;DHT22;1320;48.128;11.592;2023-08-17T10:03:17;36.10;86.80
2621;DHT22;1320;48.128;11.592;2023-08-17T10:05:44;35.90;87.70
2621;DHT22;1320;48.128;11.592;2023-08-17T10:08:11;35.70;87.00
2621;DHT22;1320;48.128;11.592;2023-08-17T10:10:44;35.50;86.70
2621;DHT22;1320;48.128;11.592;2023-08-17T10:13:12;35.30;87.20
2621;DHT22;1320;48.128;11.592;2023-08-17T10:16:08;35.10;88.30
2621;DHT22;1320;48.128;11.592;2023-08-17T10:18:49;35.10;89.60
2621;DHT22;1320;48.128;11.592;2023-08-17T10:21:28;35.30;88.90
2621;DHT22;1320;48.128;11.592;2023-08-17T10:23:58;35.50;87.30
2621;DHT22;1320;48.128;11.592;2023-08-17T10:26:24;35.60;87.10
2621;DHT22;1320;48.128;11.592;2023-08-17T10:28:51;35.70;86.50
2621;DHT22;1320;48.128;11.592;2023-08-17T10:31:17;36.00;85.60
2621;DHT22;1320;48.128;11.592;2023-08-17T10:33:44;36.30;83.90
2621;DHT22;1320;48.128;11.592;2023-08-17T10:36:13;36.60;83.70
2621;DHT22;1320;48.128;11.592;2023-08-17T10:38:39;36.80;82.40
2621;DHT22;1320;48.128;11.592;2023-08-17T10:41:13;36.80;82.10
2621;DHT22;1320;48.128;11.592;2023-08-17T10:43:58;36.70;81.60
2621;DHT22;1320;48.128;11.592;2023-08-17T10:46:37;36.40;81.40
2621;DHT22;1320;48.128;11.592;2023-08-17T10:49:05;36.10;82.30
2621;DHT22;1320;48.128;11.592;2023-08-17T10:51:32;36.10;83.60
2621;DHT22;1320;48.128;11.592;2023-08-17T10:54:04;36.00;80.90
2621;DHT22;1320;48.128;11.592;2023-08-17T10:56:30;35.90;80.00
2621;DHT22;1320;48.128;11.592;2023-08-17T10:59:02;35.90;82.30
2621;DHT22;1320;48.128;11.592;2023-08-17T11:01:34;35.60;81.40
2621;DHT22;1320;48.128;11.592;2023-08-17T11:04:17;35.50;82.70
2621;DHT22;1320;48.128;11.592;2023-08-17T11:06:44;35.30;83.20
2621;DHT22;1320;48.128;11.592;2023-08-17T11:09:09;35.10;83.30
2621;DHT22;1320;48.128;11.592;2023-08-17T11:11:35;34.90;83.70
2621;DHT22;1320;48.128;11.592;2023-08-17T11:14:01;34.80;85.60
2621;DHT22;1320;48.128;11.592;2023-08-17T11:16:27;34.60;86.60
2621;DHT22;1320;48.128;11.592;2023-08-17T11:18:53;34.50;87.10
2621;DHT22;1320;48.128;11.592;2023-08-17T11:21:21;34.40;87.30
2621;DHT22;1320;48.128;11.592;2023-08-17T11:23:46;34.40;88.50
2621;DHT22;1320;48.128;11.592;2023-08-17T11:26:15;34.40;89.70
2621;DHT22;1320;48.128;11.592;2023-08-17T11:28:41;34.40;90.10
2621;DHT22;1320;48.128;11.592;2023-08-17T11:31:09;34.30;90.40
2621;DHT22;1320;48.128;11.592;2023-08-17T11:33:36;34.20;90.50
2621;DHT22;1320;48.128;11.592;2023-08-17T11:36:04;34.10;91.00
2621;DHT22;1320;48.128;11.592;2023-08-17T11:38:32;34.10;91.10
2621;DHT22;1320;48.128;11.592;2023-08-17T11:40:58;34.20;90.90
2621;DHT22;1320;48.128;11.592;2023-08-17T11:43:25;34.30;91.50
2621;DHT22;1320;48.128;11.592;2023-08-17T11:45:52;34.30;91.70
2621;DHT22;1320;48.128;11.592;2023-08-17T11:48:20;34.60;91.80
2621;DHT22;1320;48.128;11.592;2023-08-17T11:50:46;34.80;91.30
2621;DHT22;1320;48.128;11.592;2023-08-17T11:53:11;34.90;90.90
2621;DHT22;1320;48.128;11.592;2023-08-17T11:55:37;34.80;90.90
2621;DHT22;1320;48.128;11.592;2023-08-17T11:58:03;34.60;90.80
2621;DHT22;1320;48.128;11.592;2023-08-17T12:00:35;34.40;91.20
2621;DHT22;1320;48.128;11.592;2023-08-17T12:03:02;34.30;91.20
2621;DHT22;1320;48.128;11.592;2023-08-17T12:05:31;34.30;91.30
2621;DHT22;1320;48.128;11.592;2023-08-17T12:07:58;34.40;91.00
2621;DHT22;1320;48.128;11.592;2023-08-17T12:10:27;34.60;91.10
2621;DHT22;1320;48.128;11.592;2023-08-17T12:12:56;34.70;91.30
2621;DHT22;1320;48.128;11.592;2023-08-17T12:15:22;34.70;90.80
2621;DHT22;1320;48.128;11.592;2023-08-17T12:17:49;34.80;90.80
2621;DHT22;1320;48.128;11.592;2023-08-17T12:20:19;34.90;90.60
2621;DHT22;1320;48.128;11.592;2023-08-17T12:22:46;34.90;90.60
2621;DHT22;1320;48.128;11.592;2023-08-17T12:25:12;35.00;90.60
2621;DHT22;1320;48.128;11.592;2023-08-17T12:27:37;35.10;90.70
2621;DHT22;1320;48.128;11.592;2023-08-17T12:30:03;35.20;90.40
2621;DHT22;1320;48.128;11.592;2023-08-17T12:32:29;35.40;89.90
2621;DHT22;1320;48.128;11.592;2023-08-17T12:34:55;35.50;88.90
2621;DHT22;1320;48.128;11.592;2023-08-17T12:37:21;35.50;88.50
2621;DHT22;1320;48.128;11.592;2023-08-17T12:39:47;35.50;89.00
2621;DHT22;1320;48.128;11.592;2023-08-17T12:42:13;35.50;88.80
2621;DHT22;1320;48.128;11.592;2023-08-17T12:44:42;35.60;87.80
2621;DHT22;1320;48.128;11.592;2023-08-17T12:47:08;35.70;86.90
2621;DHT22;1320;48.128;11.592;2023-08-17T12:49:34;35.80;87.30
2621;DHT22;1320;48.128;11.592;2023-08-17T12:51:59;35.70;86.40
2621;DHT22;1320;48.128;11.592;2023-08-17T12:54:25;35.70;86.00
2621;DHT22;1320;48.128;11.592;2023-08-17T12:56:50;35.90;84.70
2621;DHT22;1320;48.128;11.592;2023-08-17T12:59:16;36.10;83.10
2621;DHT22;1320;48.128;11.592;2023-08-17T13:01:42;36.20;83.60
2621;DHT22;1320;48.128;11.592;2023-08-17T13:04:07;36.30;83.80
2621;DHT22;1320;48.128;11.592;2023-08-17T13:06:33;36.30;83.70
2621;DHT22;1320;48.128;11.592;2023-08-17T13:08:59;36.40;83.20
2621;DHT22;1320;48.128;11.592;2023-08-17T13:11:24;36.60;82.70
2621;DHT22;1320;48.128;11.592;2023-08-17T13:13:50;36.60;82.20
2621;DHT22;1320;48.128;11.592;2023-08-17T13:16:15;36.60;82.30
2621;DHT22;1320;48.128;11.592;2023-08-17T13:18:41;36.60;80.90
2621;DHT22;1320;48.128;11.592;2023-08-17T13:21:07;36.60;80.90
2621;DHT22;1320;48.128;11.592;2023-08-17T13:23:32;36.60;80.80
2621;DHT22;1320;48.128;11.592;2023-08-17T13:25:58;36.60;80.80
2621;DHT22;1320;48.128;11.592;2023-08-17T13:28:24;36.70;81.10
2621;DHT22;1320;48.128;11.592;2023-08-17T13:30:49;36.80;80.00
2621;DHT22;1320;48.128;11.592;2023-08-17T13:33:15;36.80;79.20
2621;DHT22;1320;48.128;11.592;2023-08-17T13:35:43;36.80;78.80
2621;DHT22;1320;48.128;11.592;2023-08-17T13:38:09;36.80;77.80
2621;DHT22;1320;48.128;11.592;2023-08-17T13:40:35;36.90;78.20
2621;DHT22;1320;48.128;11.592;2023-08-17T13:43:02;36.90;77.20
2621;DHT22;1320;48.128;11.592;2023-08-17T13:45:28;36.90;77.30
2621;DHT22;1320;48.128;11.592;2023-08-17T13:47:54;36.90;76.90
2621;DHT22;1320;48.128;11.592;2023-08-17T13:50:20;36.80;77.10
2621;DHT22;1320;48.128;11.592;2023-08-17T13:52:46;36.60;77.10
2621;DHT22;1320;48.128;11.592;2023-08-17T13:55:12;36.40;76.60
2621;DHT22;1320;48.128;11.592;2023-08-17T13:57:38;36.30;77.00
2621;DHT22;1320;48.128;11.592;2023-08-17T14:00:04;36.20;77.00
2621;DHT22;1320;48.128;11.592;2023-08-17T14:02:30;35.90;77.30
2621;DHT22;1320;48.128;11.592;2023-08-17T14:04:55;35.60;77.70
2621;DHT22;1320;48.128;11.592;2023-08-17T14:07:21;35.20;78.50
2621;DHT22;1320;48.128;11.592;2023-08-17T14:09:46;35.00;79.00
2621;DHT22;1320;48.128;11.592;2023-08-17T14:12:12;34.70;79.40
2621;DHT22;1320;48.128;11.592;2023-08-17T14:14:38;34.50;78.80
2621;DHT22;1320;48.128;11.592;2023-08-17T14:17:04;34.30;78.90
2621;DHT22;1320;48.128;11.592;2023-08-17T14:19:29;34.10;79.90
2621;DHT22;1320;48.128;11.592;2023-08-17T14:21:56;33.90;81.10
2621;DHT22;1320;48.128;11.592;2023-08-17T14:24:21;33.70;81.20
2621;DHT22;1320;48.128;11.592;2023-08-17T14:26:47;33.50;81.20
2621;DHT22;1320;48.128;11.592;2023-08-17T14:29:12;33.40;82.10
2621;DHT22;1320;48.128;11.592;2023-08-17T14:31:38;33.30;82.90
2621;DHT22;1320;48.128;11.592;2023-08-17T14:34:04;33.20;83.50
2621;DHT22;1320;48.128;11.592;2023-08-17T14:36:29;33.30;83.90
2621;DHT22;1320;48.128;11.592;2023-08-17T14:38:55;33.40;83.70
2621;DHT22;1320;48.128;11.592;2023-08-17T14:41:21;33.60;83.30
2621;DHT22;1320;48.128;11.592;2023-08-17T14:43:46;33.80;83.20
2621;DHT22;1320;48.128;11.592;2023-08-17T14:46:12;34.10;82.60
2621;DHT22;1320;48.128;11.592;2023-08-17T14:48:37;34.40;82.30
2621;DHT22;1320;48.128;11.592;2023-08-17T14:51:03;34.80;81.60
2621;DHT22;1320;48.128;11.592;2023-08-17T14:53:28;35.20;81.00
2621;DHT22;1320;48.128;11.592;2023-08-17T14:55:54;35.50;80.60
2621;DHT22;1320;48.128;11.592;2023-08-17T14:58:21;35.90;79.60
2621;DHT22;1320;48.128;11.592;2023-08-17T15:00:46;36.20;79.50
2621;DHT22;1320;48.128;11.592;2023-08-17T15:03:12;36.40;76.60
2621;DHT22;1320;48.128;11.592;2023-08-17T15:05:37;36.60;76.60
2621;DHT22;1320;48.128;11.592;2023-08-17T15:08:03;36.90;75.40
2621;DHT22;1320;48.128;11.592;2023-08-17T15:10:29;37.20;75.20
2621;DHT22;1320;48.128;11.592;2023-08-17T15:12:55;37.40;74.70
2621;DHT22;1320;48.128;11.592;2023-08-17T15:15:21;37.60;73.10
2621;DHT22;1320;48.128;11.592;2023-08-17T15:17:47;37.70;73.30
2621;DHT22;1320;48.128;11.592;2023-08-17T15:20:12;37.70;72.10
2621;DHT22;1320;48.128;11.592;2023-08-17T15:22:38;37.40;71.70
2621;DHT22;1320;48.128;11.592;2023-08-17T15:25:04;37.30;72.70
2621;DHT22;1320;48.128;11.592;2023-08-17T15:27:29;37.00;72.10
2621;DHT22;1320;48.128;11.592;2023-08-17T15:29:55;36.60;72.10
2621;DHT22;1320;48.128;11.592;2023-08-17T15:32:21;36.40;72.20
2621;DHT22;1320;48.128;11.592;2023-08-17T15:34:46;36.10;72.50
2621;DHT22;1320;48.128;11.592;2023-08-17T15:37:12;35.80;73.50
2621;DHT22;1320;48.128;11.592;2023-08-17T15:39:38;35.50;73.40
2621;DHT22;1320;48.128;11.592;2023-08-17T15:42:03;35.20;73.60
2621;DHT22;1320;48.128;11.592;2023-08-17T15:44:29;34.90;73.80
2621;DHT22;1320;48.128;11.592;2023-08-17T15:46:56;34.60;74.50
2621;DHT22;1320;48.128;11.592;2023-08-17T15:49:24;34.30;76.20